sensor_id;sensor_type;location;lat;lon;timestamp;temperature;humidity
20139;DHT22;10230;51.502;10.800;2022-12-18T00:00:54;-4.70;99.90
20139;DHT22;10230;51.502;10.800;2022-12-18T00:03:19;-4.60;99.90
20139;DHT22;10230;51.502;10.800;2022-12-18T00:05:49;-4.60;99.90
20139;DHT22;10230;51.502;10.800;2022-12-18T00:08:16;-4.50;99.90
20139;DHT22;10230;51.502;10.800;2022-12-18T00:10:43;-4.40;99.90
20139;DHT22;10230;51.502;10.800;2022-12-18T00:13:09;-4.40;99.90
20139;DHT22;10230;51.502;10.800;2022-12-18T00:15:35;-4.30;99.90
20139;DHT22;10230;51.502;10.800;2022-12-18T00:18:01;-4.30;99.90
20139;DHT22;10230;51.502;10.800;2022-12-18T00:20:27;-4.30;99.90
20139;DHT22;10230;51.502;10.800;2022-12-18T00:22:53;-4.20;99.90
20139;DHT22;10230;51.502;10.800;2022-12-18T00:25:19;-4.20;99.90
20139;DHT22;10230;51.502;10.800;2022-12-18T00:27:44;-4.20;99.90
20139;DHT22;10230;51.502;10.800;2022-12-18T00:30:11;-4.20;99.90
20139;DHT22;10230;51.502;10.800;2022-12-18T00:32:37;-4.20;99.90
20139;DHT22;10230;51.502;10.800;2022-12-18T00:35:03;-4.20;99.90
20139;DHT22;10230;51.502;10.800;2022-12-18T00:37:29;-4.20;99.90
20139;DHT22;10230;51.502;10.800;2022-12-18T00:39:55;-4.20;99.90
20139;DHT22;10230;51.502;10.800;2022-12-18T00:42:20;-4.20;99.90
20139;DHT22;10230;51.502;10.800;2022-12-18T00:45:04;-4.20;99.90
20139;DHT22;10230;51.502;10.800;2022-12-18T00:47:30;-4.10;99.90
20139;DHT22;10230;51.502;10.800;2022-12-18T00:49:56;-4.10;99.90
20139;DHT22;10230;51.502;10.800;2022-12-18T00:52:21;-4.10;99.90
20139;DHT22;10230;51.502;10.800;2022-12-18T00:54:47;-4.10;99.90
20139;DHT22;10230;51.502;10.800;2022-12-18T00:57:12;-4.10;99.90
20139;DHT22;10230;51.502;10.800;2022-12-18T00:59:38;-4.10;99.90
20139;DHT22;10230;51.502;10.800;2022-12-18T01:02:04;-4.10;99.90
20139;DHT22;10230;51.502;10.800;2022-12-18T01:04:31;-4.10;99.90
20139;DHT22;10230;51.502;10.800;2022-12-18T01:06:57;-4.10;99.90
20139;DHT22;10230;51.502;10.800;2022-12-18T01:09:23;-4.10;99.90
20139;DHT22;10230;51.502;10.800;2022-12-18T01:11:48;-4.10;99.90
20139;DHT22;10230;51.502;10.800;2022-12-18T01:14:14;-4.20;99.90
20139;DHT22;10230;51.502;10.800;2022-12-18T01:16:39;-4.20;99.90
20139;DHT22;10230;51.502;10.800;2022-12-18T01:19:05;-4.20;99.90
20139;DHT22;10230;51.502;10.800;2022-12-18T01:21:31;-4.30;99.90
20139;DHT22;10230;51.502;10.800;2022-12-18T01:23:57;-4.30;99.90
20139;DHT22;10230;51.502;10.800;2022-12-18T01:26:24;-4.30;99.90
20139;DHT22;10230;51.502;10.800;2022-12-18T01:28:50;-4.30;99.90
20139;DHT22;10230;51.502;10.800;2022-12-18T01:31:25;-4.30;99.90
20139;DHT22;10230;51.502;10.800;2022-12-18T01:33:51;-4.30;99.90
20139;DHT22;10230;51.502;10.800;2022-12-18T01:36:25;-4.40;99.90
20139;DHT22;10230;51.502;10.800;2022-12-18T01:38:51;-4.40;99.90
20139;DHT22;10230;51.502;10.800;2022-12-18T01:41:20;-4.40;99.90
20139;DHT22;10230;51.502;10.800;2022-12-18T01:43:55;-4.40;99.90
20139;DHT22;10230;51.502;10.800;2022-12-18T01:46:23;-4.40;99.90
20139;DHT22;10230;51.502;10.800;2022-12-18T01:49:00;-4.40;99.90
20139;DHT22;10230;51.502;10.800;2022-12-18T01:51:27;-4.40;99.90
20139;DHT22;10230;51.502;10.800;2022-12-18T01:53:54;-4.40;99.90
20139;DHT22;10230;51.502;10.800;2022-12-18T02:44:44;-5.20;99.90
20139;DHT22;10230;51.502;10.800;2022-12-18T02:47:12;-5.10;99.90
20139;DHT22;10230;51.502;10.800;2022-12-18T02:50:05;-5.10;99.90
20139;DHT22;10230;51.502;10.800;2022-12-18T02:58:11;-5.10;99.90
20139;DHT22;10230;51.502;10.800;2022-12-18T03:00:41;-5.10;99.90
20139;DHT22;10230;51.502;10.800;2022-12-18T03:03:19;-5.10;99.90
20139;DHT22;10230;51.502;10.800;2022-12-18T03:05:53;-5.10;99.90
20139;DHT22;10230;51.502;10.800;2022-12-18T03:08:31;-5.10;99.90
20139;DHT22;10230;51.502;10.800;2022-12-18T03:11:13;-5.10;99.90
20139;DHT22;10230;51.502;10.800;2022-12-18T03:13:59;-5.10;99.90
20139;DHT22;10230;51.502;10.800;2022-12-18T03:16:28;-5.10;99.90
20139;DHT22;10230;51.502;10.800;2022-12-18T03:31:29;-5.50;99.90
20139;DHT22;10230;51.502;10.800;2022-12-18T03:33:59;-5.30;99.90
20139;DHT22;10230;51.502;10.800;2022-12-18T03:36:26;-5.40;99.90
20139;DHT22;10230;51.502;10.800;2022-12-18T03:38:55;-5.30;99.90
20139;DHT22;10230;51.502;10.800;2022-12-18T03:41:33;-5.30;99.90
20139;DHT22;10230;51.502;10.800;2022-12-18T03:45:07;-5.30;99.90
20139;DHT22;10230;51.502;10.800;2022-12-18T03:50:13;-5.20;99.90
20139;DHT22;10230;51.502;10.800;2022-12-18T03:55:45;-5.20;99.90
20139;DHT22;10230;51.502;10.800;2022-12-18T03:58:15;-5.20;99.90
20139;DHT22;10230;51.502;10.800;2022-12-18T04:00:42;-5.20;99.90
20139;DHT22;10230;51.502;10.800;2022-12-18T04:03:09;-5.20;99.90
20139;DHT22;10230;51.502;10.800;2022-12-18T04:05:36;-5.20;99.90
20139;DHT22;10230;51.502;10.800;2022-12-18T04:08:03;-5.20;99.90
20139;DHT22;10230;51.502;10.800;2022-12-18T04:10:29;-5.20;99.90
20139;DHT22;10230;51.502;10.800;2022-12-18T04:12:58;-5.20;99.90
20139;DHT22;10230;51.502;10.800;2022-12-18T04:15:24;-5.20;99.90
20139;DHT22;10230;51.502;10.800;2022-12-18T04:17:50;-5.20;99.90
20139;DHT22;10230;51.502;10.800;2022-12-18T04:20:16;-5.20;99.90
20139;DHT22;10230;51.502;10.800;2022-12-18T04:22:42;-5.20;99.90
20139;DHT22;10230;51.502;10.800;2022-12-18T04:25:08;-5.20;99.90
20139;DHT22;10230;51.502;10.800;2022-12-18T04:27:34;-5.20;99.90
20139;DHT22;10230;51.502;10.800;2022-12-18T04:29:59;-5.20;99.90
20139;DHT22;10230;51.502;10.800;2022-12-18T04:32:25;-5.10;99.90
20139;DHT22;10230;51.502;10.800;2022-12-18T04:34:51;-5.20;99.90
20139;DHT22;10230;51.502;10.800;2022-12-18T04:37:16;-5.20;99.90
20139;DHT22;10230;51.502;10.800;2022-12-18T04:39:42;-5.10;99.90
20139;DHT22;10230;51.502;10.800;2022-12-18T04:42:08;-5.10;99.90
20139;DHT22;10230;51.502;10.800;2022-12-18T04:44:33;-5.10;99.90
20139;DHT22;10230;51.502;10.800;2022-12-18T04:46:59;-5.10;99.90
20139;DHT22;10230;51.502;10.800;2022-12-18T04:49:25;-5.20;99.90
20139;DHT22;10230;51.502;10.800;2022-12-18T04:56:43;-5.60;99.90
20139;DHT22;10230;51.502;10.800;2022-12-18T04:59:08;-5.60;99.90
20139;DHT22;10230;51.502;10.800;2022-12-18T05:01:34;-5.60;99.90
20139;DHT22;10230;51.502;10.800;2022-12-18T05:04:00;-5.60;99.90
20139;DHT22;10230;51.502;10.800;2022-12-18T05:06:26;-5.50;99.90
20139;DHT22;10230;51.502;10.800;2022-12-18T05:08:52;-5.50;99.90
20139;DHT22;10230;51.502;10.800;2022-12-18T05:11:17;-5.50;99.90
20139;DHT22;10230;51.502;10.800;2022-12-18T05:13:44;-5.40;99.90
20139;DHT22;10230;51.502;10.800;2022-12-18T05:16:09;-5.40;99.90
20139;DHT22;10230;51.502;10.800;2022-12-18T05:18:36;-5.40;99.90
20139;DHT22;10230;51.502;10.800;2022-12-18T05:21:02;-5.40;99.90
20139;DHT22;10230;51.502;10.800;2022-12-18T05:23:28;-5.40;99.90
20139;DHT22;10230;51.502;10.800;2022-12-18T05:25:58;-5.30;99.90
20139;DHT22;10230;51.502;10.800;2022-12-18T05:28:26;-5.30;99.90
20139;DHT22;10230;51.502;10.800;2022-12-18T05:30:57;-5.40;99.90
20139;DHT22;10230;51.502;10.800;2022-12-18T05:33:25;-5.40;99.90
20139;DHT22;10230;51.502;10.800;2022-12-18T05:35:56;-5.50;99.90
20139;DHT22;10230;51.502;10.800;2022-12-18T05:38:24;-5.50;99.90
20139;DHT22;10230;51.502;10.800;2022-12-18T05:40:50;-5.50;99.90
20139;DHT22;10230;51.502;10.800;2022-12-18T05:43:16;-5.50;99.90
20139;DHT22;10230;51.502;10.800;2022-12-18T05:45:42;-5.50;99.90
20139;DHT22;10230;51.502;10.800;2022-12-18T05:48:08;-5.50;99.90
20139;DHT22;10230;51.502;10.800;2022-12-18T05:50:35;-5.50;99.90
20139;DHT22;10230;51.502;10.800;2022-12-18T05:53:02;-5.50;99.90
20139;DHT22;10230;51.502;10.800;2022-12-18T05:55:28;-5.50;99.90
20139;DHT22;10230;51.502;10.800;2022-12-18T05:57:53;-5.50;99.90
20139;DHT22;10230;51.502;10.800;2022-12-18T06:00:19;-5.50;99.90
20139;DHT22;10230;51.502;10.800;2022-12-18T06:02:47;-5.50;99.90
20139;DHT22;10230;51.502;10.800;2022-12-18T06:05:13;-5.40;99.90
20139;DHT22;10230;51.502;10.800;2022-12-18T06:07:39;-5.50;99.90
20139;DHT22;10230;51.502;10.800;2022-12-18T06:10:05;-5.60;99.90
20139;DHT22;10230;51.502;10.800;2022-12-18T06:12:31;-5.70;99.90
20139;DHT22;10230;51.502;10.800;2022-12-18T06:14:59;-5.70;99.90
20139;DHT22;10230;51.502;10.800;2022-12-18T06:17:30;-5.70;99.90
20139;DHT22;10230;51.502;10.800;2022-12-18T06:19:56;-5.70;99.90
20139;DHT22;10230;51.502;10.800;2022-12-18T06:22:22;-5.60;99.90
20139;DHT22;10230;51.502;10.800;2022-12-18T06:24:47;-5.60;99.90
20139;DHT22;10230;51.502;10.800;2022-12-18T06:27:13;-5.60;99.90
20139;DHT22;10230;51.502;10.800;2022-12-18T06:29:39;-5.50;99.90
20139;DHT22;10230;51.502;10.800;2022-12-18T06:32:05;-5.50;99.90
20139;DHT22;10230;51.502;10.800;2022-12-18T06:34:31;-5.40;99.90
20139;DHT22;10230;51.502;10.800;2022-12-18T06:36:57;-5.40;99.90
20139;DHT22;10230;51.502;10.800;2022-12-18T06:39:23;-5.40;99.90
20139;DHT22;10230;51.502;10.800;2022-12-18T06:41:49;-5.40;99.90
20139;DHT22;10230;51.502;10.800;2022-12-18T06:44:15;-5.40;99.90
20139;DHT22;10230;51.502;10.800;2022-12-18T06:46:40;-5.40;99.90
20139;DHT22;10230;51.502;10.800;2022-12-18T06:49:06;-5.30;99.90
20139;DHT22;10230;51.502;10.800;2022-12-18T06:51:32;-5.40;99.90
20139;DHT22;10230;51.502;10.800;2022-12-18T06:53:57;-5.40;99.90
20139;DHT22;10230;51.502;10.800;2022-12-18T06:56:23;-5.40;99.90
20139;DHT22;10230;51.502;10.800;2022-12-18T06:58:49;-5.40;99.90
20139;DHT22;10230;51.502;10.800;2022-12-18T07:01:14;-5.30;99.90
20139;DHT22;10230;51.502;10.800;2022-12-18T07:03:41;-5.30;99.90
20139;DHT22;10230;51.502;10.800;2022-12-18T07:06:12;-5.30;99.90
20139;DHT22;10230;51.502;10.800;2022-12-18T07:08:38;-5.30;99.90
20139;DHT22;10230;51.502;10.800;2022-12-18T07:11:04;-5.30;99.90
20139;DHT22;10230;51.502;10.800;2022-12-18T07:13:30;-5.40;99.90
20139;DHT22;10230;51.502;10.800;2022-12-18T07:15:55;-5.40;99.90
20139;DHT22;10230;51.502;10.800;2022-12-18T07:18:27;-5.40;99.90
20139;DHT22;10230;51.502;10.800;2022-12-18T07:20:53;-5.40;99.90
20139;DHT22;10230;51.502;10.800;2022-12-18T07:23:19;-5.40;99.90
20139;DHT22;10230;51.502;10.800;2022-12-18T07:25:44;-5.40;99.90
20139;DHT22;10230;51.502;10.800;2022-12-18T07:28:10;-5.50;99.90
20139;DHT22;10230;51.502;10.800;2022-12-18T07:30:38;-5.50;99.90
20139;DHT22;10230;51.502;10.800;2022-12-18T07:33:03;-5.60;99.90
20139;DHT22;10230;51.502;10.800;2022-12-18T07:35:29;-5.70;99.90
20139;DHT22;10230;51.502;10.800;2022-12-18T07:37:55;-5.70;99.90
20139;DHT22;10230;51.502;10.800;2022-12-18T07:40:20;-5.70;99.90
20139;DHT22;10230;51.502;10.800;2022-12-18T07:42:46;-5.60;99.90
20139;DHT22;10230;51.502;10.800;2022-12-18T07:45:12;-5.60;99.90
20139;DHT22;10230;51.502;10.800;2022-12-18T07:47:37;-5.60;99.90
20139;DHT22;10230;51.502;10.800;2022-12-18T07:50:04;-5.60;99.90
20139;DHT22;10230;51.502;10.800;2022-12-18T07:52:30;-5.70;99.90
20139;DHT22;10230;51.502;10.800;2022-12-18T07:54:55;-5.80;99.90
20139;DHT22;10230;51.502;10.800;2022-12-18T07:57:21;-5.80;99.90
20139;DHT22;10230;51.502;10.800;2022-12-18T07:59:47;-5.90;99.90
20139;DHT22;10230;51.502;10.800;2022-12-18T08:02:12;-5.90;99.90
20139;DHT22;10230;51.502;10.800;2022-12-18T08:04:38;-5.90;99.90
20139;DHT22;10230;51.502;10.800;2022-12-18T08:07:03;-5.80;99.90
20139;DHT22;10230;51.502;10.800;2022-12-18T08:09:29;-5.70;99.90
20139;DHT22;10230;51.502;10.800;2022-12-18T08:11:55;-5.60;99.90
20139;DHT22;10230;51.502;10.800;2022-12-18T08:14:20;-5.50;99.90
20139;DHT22;10230;51.502;10.800;2022-12-18T08:16:46;-5.40;99.90
20139;DHT22;10230;51.502;10.800;2022-12-18T08:19:12;-5.30;99.90
20139;DHT22;10230;51.502;10.800;2022-12-18T08:21:37;-5.20;99.90
20139;DHT22;10230;51.502;10.800;2022-12-18T08:24:03;-5.00;99.90
20139;DHT22;10230;51.502;10.800;2022-12-18T08:26:30;-4.90;99.90
20139;DHT22;10230;51.502;10.800;2022-12-18T08:28:58;-4.80;99.90
20139;DHT22;10230;51.502;10.800;2022-12-18T08:31:24;-4.70;99.90
20139;DHT22;10230;51.502;10.800;2022-12-18T08:33:52;-4.60;99.90
20139;DHT22;10230;51.502;10.800;2022-12-18T08:36:18;-4.50;99.90
20139;DHT22;10230;51.502;10.800;2022-12-18T08:38:45;-4.40;99.90
20139;DHT22;10230;51.502;10.800;2022-12-18T08:41:12;-4.30;99.90
20139;DHT22;10230;51.502;10.800;2022-12-18T08:43:38;-4.30;99.90
20139;DHT22;10230;51.502;10.800;2022-12-18T08:46:24;-4.20;99.90
20139;DHT22;10230;51.502;10.800;2022-12-18T08:48:51;-4.10;99.90
20139;DHT22;10230;51.502;10.800;2022-12-18T08:51:17;-4.10;99.90
20139;DHT22;10230;51.502;10.800;2022-12-18T08:53:43;-4.00;99.90
20139;DHT22;10230;51.502;10.800;2022-12-18T08:56:10;-4.00;99.90
20139;DHT22;10230;51.502;10.800;2022-12-18T08:58:36;-3.90;99.90
20139;DHT22;10230;51.502;10.800;2022-12-18T09:01:07;-3.80;99.90
20139;DHT22;10230;51.502;10.800;2022-12-18T09:20:38;-2.70;99.90
20139;DHT22;10230;51.502;10.800;2022-12-18T09:23:05;-2.70;99.90
20139;DHT22;10230;51.502;10.800;2022-12-18T09:25:32;-2.60;99.90
20139;DHT22;10230;51.502;10.800;2022-12-18T09:28:12;-2.70;99.90
20139;DHT22;10230;51.502;10.800;2022-12-18T09:30:39;-2.80;99.90
20139;DHT22;10230;51.502;10.800;2022-12-18T09:33:06;-3.10;99.90
20139;DHT22;10230;51.502;10.800;2022-12-18T09:35:31;-3.20;99.90
20139;DHT22;10230;51.502;10.800;2022-12-18T09:37:57;-3.30;99.90
20139;DHT22;10230;51.502;10.800;2022-12-18T09:40:25;-3.30;99.90
20139;DHT22;10230;51.502;10.800;2022-12-18T09:43:00;-3.30;99.90
20139;DHT22;10230;51.502;10.800;2022-12-18T09:45:26;-3.30;99.90
20139;DHT22;10230;51.502;10.800;2022-12-18T09:47:54;-3.00;99.90
20139;DHT22;10230;51.502;10.800;2022-12-18T09:50:31;-2.60;99.90
20139;DHT22;10230;51.502;10.800;2022-12-18T09:53:02;-2.30;99.90
20139;DHT22;10230;51.502;10.800;2022-12-18T09:55:34;-2.00;99.90
20139;DHT22;10230;51.502;10.800;2022-12-18T10:00:36;-0.90;99.90
20139;DHT22;10230;51.502;10.800;2022-12-18T10:10:53;3.20;99.90
20139;DHT22;10230;51.502;10.800;2022-12-18T10:28:30;7.70;93.00
20139;DHT22;10230;51.502;10.800;2022-12-18T10:33:27;8.50;91.20
20139;DHT22;10230;51.502;10.800;2022-12-18T10:35:53;9.10;89.50
20139;DHT22;10230;51.502;10.800;2022-12-18T10:43:27;11.90;76.70
20139;DHT22;10230;51.502;10.800;2022-12-18T10:48:57;14.20;67.00
20139;DHT22;10230;51.502;10.800;2022-12-18T10:51:26;15.00;62.20
20139;DHT22;10230;51.502;10.800;2022-12-18T10:56:20;16.10;55.90
20139;DHT22;10230;51.502;10.800;2022-12-18T10:58:57;16.20;54.30
20139;DHT22;10230;51.502;10.800;2022-12-18T11:01:23;16.50;53.30
20139;DHT22;10230;51.502;10.800;2022-12-18T11:47:16;14.30;48.80
20139;DHT22;10230;51.502;10.800;2022-12-18T12:23:53;9.00;90.10
20139;DHT22;10230;51.502;10.800;2022-12-18T12:29:17;8.60;99.90
20139;DHT22;10230;51.502;10.800;2022-12-18T12:32:01;8.40;87.40
20139;DHT22;10230;51.502;10.800;2022-12-18T12:40:30;7.90;63.70
20139;DHT22;10230;51.502;10.800;2022-12-18T12:43:03;7.30;64.50
20139;DHT22;10230;51.502;10.800;2022-12-18T12:48:31;6.20;83.50
20139;DHT22;10230;51.502;10.800;2022-12-18T12:51:01;5.30;89.50
20139;DHT22;10230;51.502;10.800;2022-12-18T12:53:35;4.90;73.60
20139;DHT22;10230;51.502;10.800;2022-12-18T12:56:03;4.40;75.90
20139;DHT22;10230;51.502;10.800;2022-12-18T13:14:37;1.60;99.90
20139;DHT22;10230;51.502;10.800;2022-12-18T13:24:59;0.00;99.90
20139;DHT22;10230;51.502;10.800;2022-12-18T13:36:14;-0.90;99.90
20139;DHT22;10230;51.502;10.800;2022-12-18T13:41:26;-1.40;99.90
20139;DHT22;10230;51.502;10.800;2022-12-18T13:43:56;-1.40;99.90
20139;DHT22;10230;51.502;10.800;2022-12-18T13:46:46;-1.50;99.90
20139;DHT22;10230;51.502;10.800;2022-12-18T14:22:48;-3.20;99.90
20139;DHT22;10230;51.502;10.800;2022-12-18T14:25:27;-3.20;99.90
20139;DHT22;10230;51.502;10.800;2022-12-18T14:43:11;-4.20;99.90
20139;DHT22;10230;51.502;10.800;2022-12-18T14:45:41;-4.30;99.90
20139;DHT22;10230;51.502;10.800;2022-12-18T14:53:37;-4.60;99.90
20139;DHT22;10230;51.502;10.800;2022-12-18T14:58:57;-4.50;99.90
20139;DHT22;10230;51.502;10.800;2022-12-18T15:01:39;-4.50;99.90
20139;DHT22;10230;51.502;10.800;2022-12-18T15:04:28;-4.50;99.90
20139;DHT22;10230;51.502;10.800;2022-12-18T15:09:31;-4.50;99.90
20139;DHT22;10230;51.502;10.800;2022-12-18T15:11:59;-4.50;99.90
20139;DHT22;10230;51.502;10.800;2022-12-18T15:14:32;-4.50;99.90
20139;DHT22;10230;51.502;10.800;2022-12-18T15:17:01;-4.50;99.90
20139;DHT22;10230;51.502;10.800;2022-12-18T15:19:37;-4.50;99.90
20139;DHT22;10230;51.502;10.800;2022-12-18T15:22:04;-4.50;99.90
20139;DHT22;10230;51.502;10.800;2022-12-18T15:24:31;-4.60;99.90
20139;DHT22;10230;51.502;10.800;2022-12-18T15:26:58;-4.60;99.90
20139;DHT22;10230;51.502;10.800;2022-12-18T15:29:24;-4.60;99.90
20139;DHT22;10230;51.502;10.800;2022-12-18T15:31:59;-4.60;99.90
20139;DHT22;10230;51.502;10.800;2022-12-18T15:34:26;-4.70;99.90
20139;DHT22;10230;51.502;10.800;2022-12-18T15:36:52;-4.70;99.90
20139;DHT22;10230;51.502;10.800;2022-12-18T15:39:18;-4.70;99.90
20139;DHT22;10230;51.502;10.800;2022-12-18T15:41:44;-4.90;99.90
20139;DHT22;10230;51.502;10.800;2022-12-18T15:44:29;-5.00;99.90
20139;DHT22;10230;51.502;10.800;2022-12-18T15:46:55;-5.00;99.90
20139;DHT22;10230;51.502;10.800;2022-12-18T15:49:21;-5.00;99.90
20139;DHT22;10230;51.502;10.800;2022-12-18T15:51:51;-5.00;99.90
20139;DHT22;10230;51.502;10.800;2022-12-18T15:54:17;-5.00;99.90
20139;DHT22;10230;51.502;10.800;2022-12-18T15:57:03;-5.00;99.90
20139;DHT22;10230;51.502;10.800;2022-12-18T15:59:47;-4.90;99.90
20139;DHT22;10230;51.502;10.800;2022-12-18T16:02:17;-4.80;99.90
20139;DHT22;10230;51.502;10.800;2022-12-18T16:04:43;-4.90;99.90
20139;DHT22;10230;51.502;10.800;2022-12-18T16:07:11;-4.60;99.90
20139;DHT22;10230;51.502;10.800;2022-12-18T16:09:37;-4.60;99.90
20139;DHT22;10230;51.502;10.800;2022-12-18T16:12:04;-4.50;99.90
20139;DHT22;10230;51.502;10.800;2022-12-18T16:14:31;-4.50;99.90
20139;DHT22;10230;51.502;10.800;2022-12-18T16:16:59;-4.30;99.90
20139;DHT22;10230;51.502;10.800;2022-12-18T16:19:26;-4.50;99.90
20139;DHT22;10230;51.502;10.800;2022-12-18T16:21:52;-4.30;99.90
20139;DHT22;10230;51.502;10.800;2022-12-18T16:24:23;-4.40;99.90
20139;DHT22;10230;51.502;10.800;2022-12-18T16:26:50;-4.30;99.90
20139;DHT22;10230;51.502;10.800;2022-12-18T16:29:17;-4.10;99.90
20139;DHT22;10230;51.502;10.800;2022-12-18T16:31:43;-4.00;99.90
20139;DHT22;10230;51.502;10.800;2022-12-18T16:34:13;-4.30;99.90
20139;DHT22;10230;51.502;10.800;2022-12-18T16:36:39;-3.90;99.90
20139;DHT22;10230;51.502;10.800;2022-12-18T16:39:05;-3.90;99.90
20139;DHT22;10230;51.502;10.800;2022-12-18T16:41:31;-3.90;99.90
20139;DHT22;10230;51.502;10.800;2022-12-18T16:43:57;-3.90;99.90
20139;DHT22;10230;51.502;10.800;2022-12-18T16:46:23;-4.00;99.90
20139;DHT22;10230;51.502;10.800;2022-12-18T16:48:49;-3.90;99.90
20139;DHT22;10230;51.502;10.800;2022-12-18T16:51:14;-3.80;99.90
20139;DHT22;10230;51.502;10.800;2022-12-18T16:53:40;-3.80;99.90
20139;DHT22;10230;51.502;10.800;2022-12-18T16:56:06;-3.80;99.90
20139;DHT22;10230;51.502;10.800;2022-12-18T16:58:31;-3.80;99.90
20139;DHT22;10230;51.502;10.800;2022-12-18T17:00:57;-3.20;99.90
20139;DHT22;10230;51.502;10.800;2022-12-18T17:03:23;-3.90;99.90
20139;DHT22;10230;51.502;10.800;2022-12-18T17:05:48;-3.90;99.90
20139;DHT22;10230;51.502;10.800;2022-12-18T17:08:14;-3.80;99.90
20139;DHT22;10230;51.502;10.800;2022-12-18T17:10:40;-4.00;99.90
20139;DHT22;10230;51.502;10.800;2022-12-18T17:13:05;-3.80;99.90
20139;DHT22;10230;51.502;10.800;2022-12-18T17:15:34;-3.70;99.90
20139;DHT22;10230;51.502;10.800;2022-12-18T17:18:01;-3.60;99.90
20139;DHT22;10230;51.502;10.800;2022-12-18T17:20:27;-3.70;99.90
20139;DHT22;10230;51.502;10.800;2022-12-18T17:22:52;-3.70;99.90
20139;DHT22;10230;51.502;10.800;2022-12-18T17:25:18;-3.80;99.90
20139;DHT22;10230;51.502;10.800;2022-12-18T17:27:43;-3.80;99.90
20139;DHT22;10230;51.502;10.800;2022-12-18T17:30:10;-3.80;99.90
20139;DHT22;10230;51.502;10.800;2022-12-18T17:32:35;-4.10;99.90
20139;DHT22;10230;51.502;10.800;2022-12-18T17:47:15;-4.00;99.90
20139;DHT22;10230;51.502;10.800;2022-12-18T17:49:41;-4.10;99.90
20139;DHT22;10230;51.502;10.800;2022-12-18T17:52:07;-3.90;99.90
20139;DHT22;10230;51.502;10.800;2022-12-18T17:54:32;-3.80;99.90
20139;DHT22;10230;51.502;10.800;2022-12-18T17:56:59;-3.80;99.90
20139;DHT22;10230;51.502;10.800;2022-12-18T18:19:23;-3.20;99.90
20139;DHT22;10230;51.502;10.800;2022-12-18T18:21:50;-3.20;99.90
20139;DHT22;10230;51.502;10.800;2022-12-18T18:24:19;-3.20;99.90
20139;DHT22;10230;51.502;10.800;2022-12-18T18:26:45;-3.20;99.90
20139;DHT22;10230;51.502;10.800;2022-12-18T18:29:20;-3.20;99.90
20139;DHT22;10230;51.502;10.800;2022-12-18T18:31:47;-3.20;99.90
20139;DHT22;10230;51.502;10.800;2022-12-18T18:34:31;-3.10;99.90
20139;DHT22;10230;51.502;10.800;2022-12-18T18:36:59;-3.00;99.90
20139;DHT22;10230;51.502;10.800;2022-12-18T18:39:25;-3.00;99.90
20139;DHT22;10230;51.502;10.800;2022-12-18T18:41:51;-2.90;99.90
20139;DHT22;10230;51.502;10.800;2022-12-18T18:44:17;-3.60;99.90
20139;DHT22;10230;51.502;10.800;2022-12-18T18:46:45;-2.90;99.90
20139;DHT22;10230;51.502;10.800;2022-12-18T18:49:11;-2.70;99.90
20139;DHT22;10230;51.502;10.800;2022-12-18T18:51:38;-2.80;99.90
20139;DHT22;10230;51.502;10.800;2022-12-18T18:54:04;-2.70;99.90
20139;DHT22;10230;51.502;10.800;2022-12-18T18:56:30;-2.60;99.90
20139;DHT22;10230;51.502;10.800;2022-12-18T18:58:56;-2.60;99.90
20139;DHT22;10230;51.502;10.800;2022-12-18T19:01:23;-2.50;99.90
20139;DHT22;10230;51.502;10.800;2022-12-18T19:03:50;-2.60;99.90
20139;DHT22;10230;51.502;10.800;2022-12-18T19:06:25;-2.60;99.90
20139;DHT22;10230;51.502;10.800;2022-12-18T19:08:52;-2.70;99.90
20139;DHT22;10230;51.502;10.800;2022-12-18T19:11:19;-2.70;99.90
20139;DHT22;10230;51.502;10.800;2022-12-18T19:14:06;-2.70;99.90
20139;DHT22;10230;51.502;10.800;2022-12-18T19:16:33;-2.70;99.90
20139;DHT22;10230;51.502;10.800;2022-12-18T19:18:58;-2.60;99.90
20139;DHT22;10230;51.502;10.800;2022-12-18T19:21:24;-2.60;99.90
20139;DHT22;10230;51.502;10.800;2022-12-18T19:23:50;-2.50;99.90
20139;DHT22;10230;51.502;10.800;2022-12-18T19:26:17;-2.40;99.90
20139;DHT22;10230;51.502;10.800;2022-12-18T19:28:43;-2.30;99.90
20139;DHT22;10230;51.502;10.800;2022-12-18T19:31:11;-2.20;99.90
20139;DHT22;10230;51.502;10.800;2022-12-18T19:33:39;-2.10;99.90
20139;DHT22;10230;51.502;10.800;2022-12-18T19:36:20;-2.10;99.90
20139;DHT22;10230;51.502;10.800;2022-12-18T19:38:47;-2.00;99.90
20139;DHT22;10230;51.502;10.800;2022-12-18T19:41:13;-1.90;99.90
20139;DHT22;10230;51.502;10.800;2022-12-18T19:43:39;-1.90;99.90
20139;DHT22;10230;51.502;10.800;2022-12-18T19:46:06;-1.90;99.90
20139;DHT22;10230;51.502;10.800;2022-12-18T19:48:33;-1.80;99.90
20139;DHT22;10230;51.502;10.800;2022-12-18T19:51:04;-1.80;99.90
20139;DHT22;10230;51.502;10.800;2022-12-18T19:53:30;-1.80;99.90
20139;DHT22;10230;51.502;10.800;2022-12-18T19:55:56;-1.70;99.90
20139;DHT22;10230;51.502;10.800;2022-12-18T19:58:22;-1.80;99.90
20139;DHT22;10230;51.502;10.800;2022-12-18T20:00:47;-1.80;99.90
20139;DHT22;10230;51.502;10.800;2022-12-18T20:03:13;-1.70;99.90
20139;DHT22;10230;51.502;10.800;2022-12-18T20:05:39;-1.80;99.90
20139;DHT22;10230;51.502;10.800;2022-12-18T20:08:04;-1.70;99.90
20139;DHT22;10230;51.502;10.800;2022-12-18T20:10:30;-1.70;99.90
20139;DHT22;10230;51.502;10.800;2022-12-18T20:12:56;-1.70;99.90
20139;DHT22;10230;51.502;10.800;2022-12-18T20:15:22;-1.70;99.90
20139;DHT22;10230;51.502;10.800;2022-12-18T20:17:48;-1.60;99.90
20139;DHT22;10230;51.502;10.800;2022-12-18T20:20:14;-1.60;99.90
20139;DHT22;10230;51.502;10.800;2022-12-18T20:22:39;-1.60;99.90
20139;DHT22;10230;51.502;10.800;2022-12-18T20:25:05;-1.60;99.90
20139;DHT22;10230;51.502;10.800;2022-12-18T20:27:33;-3.40;99.90
20139;DHT22;10230;51.502;10.800;2022-12-18T20:29:59;-1.60;99.90
20139;DHT22;10230;51.502;10.800;2022-12-18T20:32:24;-1.60;99.90
20139;DHT22;10230;51.502;10.800;2022-12-18T20:34:50;-1.60;99.90
20139;DHT22;10230;51.502;10.800;2022-12-18T20:37:16;-1.70;99.90
20139;DHT22;10230;51.502;10.800;2022-12-18T20:39:41;-1.70;99.90
20139;DHT22;10230;51.502;10.800;2022-12-18T20:42:07;-1.80;99.90
20139;DHT22;10230;51.502;10.800;2022-12-18T20:44:32;-1.80;99.90
20139;DHT22;10230;51.502;10.800;2022-12-18T20:46:58;-1.80;99.90
20139;DHT22;10230;51.502;10.800;2022-12-18T20:49:27;-1.80;99.90
20139;DHT22;10230;51.502;10.800;2022-12-18T20:51:54;-1.70;99.90
20139;DHT22;10230;51.502;10.800;2022-12-18T20:54:22;-1.70;99.90
20139;DHT22;10230;51.502;10.800;2022-12-18T20:56:48;-1.60;99.90
20139;DHT22;10230;51.502;10.800;2022-12-18T20:59:14;-1.60;99.90
20139;DHT22;10230;51.502;10.800;2022-12-18T21:01:40;-1.60;99.90
20139;DHT22;10230;51.502;10.800;2022-12-18T21:04:06;-1.50;99.90
20139;DHT22;10230;51.502;10.800;2022-12-18T21:06:32;-1.50;99.90
20139;DHT22;10230;51.502;10.800;2022-12-18T21:08:58;-1.40;99.90
20139;DHT22;10230;51.502;10.800;2022-12-18T21:11:24;-1.40;99.90